Time;durP1;ratioP1;P1;durP2;ratioP2;P2;SDS_P1;SDS_P2;PMS_P1;PMS_P2;Temp;Humidity;BMP_temperature;BMP_pressure;BME280_temperature;BME280_humidity;BME280_pressure;Samples;Min_cycle;Max_cycle;Signal;HPM_P1;HPM_P2
2022/03/11 00:01:06;;;;;;;12.80;11.63;;;17.70;60.00;;;;;;5026804;28;43977;-69
2022/03/11 00:03:35;;;;;;;11.97;10.63;;;17.70;59.30;;;;;;5025947;28;43999;-69
2022/03/11 00:06:05;;;;;;;11.17;10.07;;;17.70;59.30;;;;;;5007844;28;43432;-69
2022/03/11 00:08:33;;;;;;;13.03;11.10;;;17.60;59.40;;;;;;5026215;28;43404;-69
2022/03/11 00:11:01;;;;;;;12.17;10.80;;;17.60;59.50;;;;;;5026247;28;44025;-69
2022/03/11 00:13:29;;;;;;;12.27;11.03;;;17.50;59.60;;;;;;5025688;28;44017;-68
2022/03/11 00:15:57;;;;;;;11.70;10.50;;;17.50;59.80;;;;;;5026521;28;43539;-69
2022/03/11 00:18:25;;;;;;;11.40;10.30;;;17.40;59.80;;;;;;5025828;28;43915;-69
2022/03/11 00:20:54;;;;;;;12.53;10.60;;;17.40;59.90;;;;;;5025868;28;45093;-70
2022/03/11 00:23:22;;;;;;;11.30;10.20;;;17.40;60.00;;;;;;5025381;28;43927;-69
2022/03/11 00:25:50;;;;;;;11.17;9.93;;;17.40;60.00;;;;;;5026015;28;43981;-69
2022/03/11 00:28:18;;;;;;;11.60;10.47;;;17.40;60.10;;;;;;5025958;28;43866;-68
2022/03/11 00:30:47;;;;;;;11.47;10.37;;;17.40;60.30;;;;;;5008038;28;44097;-69
2022/03/11 00:33:15;;;;;;;11.30;10.20;;;17.50;60.20;;;;;;5007874;28;45987;-69
2022/03/11 00:35:43;;;;;;;11.13;10.03;;;17.60;59.70;;;;;;5008075;28;43996;-69
2022/03/11 00:38:12;;;;;;;11.83;10.67;;;17.90;59.40;;;;;;5026173;28;43818;-69
2022/03/11 00:40:41;;;;;;;11.20;10.10;;;18.00;58.90;;;;;;5025767;28;43909;-70
2022/03/11 00:43:10;;;;;;;10.73;9.70;;;18.00;58.60;;;;;;5025678;28;44017;-69
2022/03/11 00:45:38;;;;;;;10.10;9.17;;;18.00;58.50;;;;;;5025420;28;43996;-68
2022/03/11 00:48:06;;;;;;;11.07;9.77;;;17.90;58.60;;;;;;5026076;28;43456;-68
2022/03/11 00:50:34;;;;;;;10.20;9.23;;;17.80;58.80;;;;;;5007348;28;45856;-69
2022/03/11 00:53:03;;;;;;;10.67;9.57;;;17.70;59.00;;;;;;5025307;28;44071;-69
2022/03/11 00:55:32;;;;;;;10.10;9.17;;;17.60;59.10;;;;;;5024885;28;44072;-68
2022/03/11 00:58:00;;;;;;;10.03;9.13;;;17.60;59.40;;;;;;5008509;28;44093;-68
2022/03/11 01:00:28;;;;;;;10.20;9.20;;;17.50;59.50;;;;;;5007197;28;45795;-69
2022/03/11 01:02:56;;;;;;;10.20;9.13;;;17.50;59.60;;;;;;5025577;28;43867;-68
2022/03/11 01:05:24;;;;;;;9.80;8.90;;;17.50;59.80;;;;;;5024935;28;43988;-69
2022/03/11 01:07:53;;;;;;;9.87;8.97;;;17.40;59.90;;;;;;5026075;28;44074;-69
2022/03/11 01:10:21;;;;;;;9.40;8.63;;;17.50;59.90;;;;;;5024955;28;44010;-69
2022/03/11 01:12:50;;;;;;;9.40;8.60;;;17.60;59.50;;;;;;5025310;28;44024;-69
2022/03/11 01:15:18;;;;;;;9.13;8.33;;;17.70;59.30;;;;;;5024797;28;43907;-70
2022/03/11 01:17:47;;;;;;;8.57;7.87;;;17.70;59.10;;;;;;5009106;28;43916;-69
2022/03/11 01:20:15;;;;;;;8.50;7.77;;;17.70;59.10;;;;;;5028833;28;44102;-69
2022/03/11 01:22:43;;;;;;;9.53;8.63;;;17.60;59.10;;;;;;5010620;28;45299;-68
2022/03/11 01:25:12;;;;;;;9.27;8.47;;;17.60;59.40;;;;;;5028730;28;43962;-69
2022/03/11 01:27:40;;;;;;;8.67;7.97;;;17.50;59.50;;;;;;5029225;28;44088;-68
2022/03/11 01:30:13;;;;;;;9.43;8.53;;;17.50;59.60;;;;;;5028383;28;44043;-70
2022/03/11 01:32:41;;;;;;;8.20;7.60;;;17.40;59.60;;;;;;5028238;28;44043;-69
2022/03/11 01:35:09;;;;;;;8.90;8.20;;;17.40;59.80;;;;;;5010467;28;43924;-69
2022/03/11 01:37:40;;;;;;;9.87;8.93;;;17.40;59.80;;;;;;5029072;28;44048;-69
2022/03/11 01:40:09;;;;;;;8.73;8.03;;;17.40;59.90;;;;;;5028882;28;43996;-68
2022/03/11 01:42:39;;;;;;;8.53;7.83;;;17.40;60.00;;;;;;5028366;28;43902;-70
2022/03/11 01:45:09;;;;;;;8.77;7.97;;;17.30;60.00;;;;;;5010341;28;43943;-69
2022/03/11 01:47:37;;;;;;;9.10;8.37;;;17.40;60.00;;;;;;5028549;28;43422;-69
2022/03/11 01:50:06;;;;;;;8.50;7.90;;;17.60;59.80;;;;;;5028834;28;44080;-69
2022/03/11 01:52:34;;;;;;;8.53;7.83;;;17.80;59.40;;;;;;5026057;28;44611;-69
2022/03/11 01:55:02;;;;;;;8.87;8.17;;;17.90;58.90;;;;;;5027927;28;44021;-69
2022/03/11 01:57:34;;;;;;;7.90;7.30;;;18.00;58.60;;;;;;5028605;28;43953;-69
2022/03/11 02:00:03;;;;;;;8.10;7.50;;;18.00;58.50;;;;;;5028422;28;44244;-69
2022/03/11 02:02:40;;;;;;;7.47;6.87;;;17.90;58.50;;;;;;5024927;28;43874;-69
2022/03/11 02:05:09;;;;;;;8.57;7.87;;;17.80;58.70;;;;;;5010575;28;44087;-69
2022/03/11 02:07:37;;;;;;;7.90;7.20;;;17.70;58.80;;;;;;5028528;28;44118;-69
2022/03/11 02:10:06;;;;;;;7.77;7.17;;;17.70;59.10;;;;;;5028707;28;43596;-69
2022/03/11 02:12:35;;;;;;;7.97;7.37;;;17.60;59.20;;;;;;5009446;28;44981;-69
2022/03/11 02:15:03;;;;;;;7.47;6.87;;;17.50;59.30;;;;;;5026597;28;43377;-68
2022/03/11 02:17:31;;;;;;;8.13;7.50;;;17.50;59.50;;;;;;5027108;28;43941;-69
2022/03/11 02:20:01;;;;;;;7.57;6.97;;;17.40;59.60;;;;;;5028039;28;43961;-70
2022/03/11 02:22:28;;;;;;;7.93;7.30;;;17.40;59.80;;;;;;5009661;28;45168;-69
2022/03/11 02:24:58;;;;;;;7.67;7.07;;;17.50;59.90;;;;;;5010191;28;43902;-69
2022/03/11 02:27:26;;;;;;;8.07;7.40;;;17.60;59.50;;;;;;5010163;28;43893;-68
2022/03/11 02:29:54;;;;;;;8.23;7.53;;;17.70;59.10;;;;;;5027036;28;43971;-68
2022/03/11 02:32:22;;;;;;;6.70;6.30;;;17.70;59.00;;;;;;5009431;28;44654;-69
2022/03/11 02:34:50;;;;;;;6.90;6.50;;;17.70;59.00;;;;;;5027490;28;44030;-69
2022/03/11 02:37:17;;;;;;;6.77;6.27;;;17.60;59.00;;;;;;5027856;28;43486;-68
2022/03/11 02:39:45;;;;;;;7.30;6.80;;;17.60;59.20;;;;;;5009344;28;45438;-68
2022/03/11 02:42:15;;;;;;;6.90;6.40;;;17.50;59.30;;;;;;5027691;28;43407;-68
2022/03/11 02:44:44;;;;;;;7.40;6.90;;;17.50;59.50;;;;;;5027653;28;44078;-69
2022/03/11 02:47:12;;;;;;;6.97;6.47;;;17.40;59.60;;;;;;5027927;28;44103;-69
2022/03/11 02:49:40;;;;;;;6.57;6.17;;;17.40;59.70;;;;;;5026920;28;44186;-68
2022/03/11 02:52:08;;;;;;;6.77;6.37;;;17.40;59.70;;;;;;5027630;28;43325;-69
2022/03/11 02:54:36;;;;;;;6.70;6.27;;;17.30;59.70;;;;;;5026565;28;44132;-69
2022/03/11 02:57:04;;;;;;;7.37;6.70;;;17.30;59.80;;;;;;5027661;28;43960;-69
2022/03/11 02:59:34;;;;;;;6.73;6.27;;;17.30;59.90;;;;;;5026833;28;43876;-69
2022/03/11 03:02:02;;;;;;;6.67;6.17;;;17.40;60.00;;;;;;5009119;28;44432;-69
2022/03/11 03:04:30;;;;;;;6.77;6.37;;;17.50;59.80;;;;;;5027148;28;43981;-69
2022/03/11 03:06:58;;;;;;;6.77;6.17;;;17.70;59.40;;;;;;5027474;28;43956;-69
2022/03/11 03:09:26;;;;;;;6.50;6.00;;;17.90;59.00;;;;;;5026913;28;43984;-69
2022/03/11 03:11:54;;;;;;;5.90;5.60;;;18.00;58.50;;;;;;5027274;28;43992;-68
2022/03/11 03:14:22;;;;;;;6.60;6.20;;;18.00;58.30;;;;;;5009001;28;43902;-70
2022/03/11 03:16:51;;;;;;;5.67;5.37;;;18.00;58.30;;;;;;5027400;28;43979;-68
2022/03/11 03:19:20;;;;;;;6.30;5.90;;;17.90;58.50;;;;;;5026807;28;44103;-69
2022/03/11 03:21:48;;;;;;;6.10;5.80;;;17.80;58.70;;;;;;5026798;28;43780;-69
2022/03/11 03:24:16;;;;;;;5.93;5.53;;;17.70;58.90;;;;;;5026555;28;43949;-68
2022/03/11 03:26:44;;;;;;;6.10;5.70;;;17.60;59.10;;;;;;5027414;28;43879;-69
2022/03/11 03:29:12;;;;;;;5.57;5.27;;;17.50;59.20;;;;;;5026689;28;45112;-69
2022/03/11 03:31:40;;;;;;;5.63;5.33;;;17.50;59.40;;;;;;5026159;28;44024;-69
2022/03/11 03:34:10;;;;;;;6.07;5.73;;;17.40;59.40;;;;;;5008736;28;43918;-69
2022/03/11 03:36:39;;;;;;;5.93;5.63;;;17.40;59.50;;;;;;5009039;28;43886;-69
2022/03/11 03:39:07;;;;;;;6.23;5.83;;;17.40;59.80;;;;;;5026463;28;44984;-69
2022/03/11 03:41:35;;;;;;;6.23;5.83;;;17.50;59.70;;;;;;5007310;28;44603;-69
2022/03/11 03:44:03;;;;;;;6.10;5.80;;;17.70;59.30;;;;;;5008434;28;43973;-70
2022/03/11 03:46:31;;;;;;;5.90;5.50;;;17.70;59.00;;;;;;5008421;28;44001;-68
2022/03/11 03:49:00;;;;;;;5.80;5.50;;;17.70;59.00;;;;;;5026911;28;43982;-69
2022/03/11 03:51:29;;;;;;;5.97;5.67;;;17.60;59.00;;;;;;5026037;28;44150;-68
2022/03/11 03:53:57;;;;;;;5.53;5.23;;;17.60;59.10;;;;;;5008550;28;44101;-69
2022/03/11 03:56:25;;;;;;;5.27;5.07;;;17.50;59.20;;;;;;5007934;28;44009;-69
2022/03/11 03:58:53;;;;;;;5.70;5.40;;;17.40;59.30;;;;;;5026675;28;43972;-69
2022/03/11 04:01:26;;;;;;;6.00;5.60;;;17.40;59.40;;;;;;5025885;28;43966;-69
2022/03/11 04:04:03;;;;;;;5.63;5.33;;;17.40;59.60;;;;;;5144094;27;43962;-69
2022/03/11 04:06:32;;;;;;;5.60;5.30;;;17.30;59.50;;;;;;5117163;27;43984;-69
2022/03/11 04:09:00;;;;;;;5.87;5.50;;;17.40;59.70;;;;;;5118007;27;43968;-69
2022/03/11 04:11:28;;;;;;;5.77;5.47;;;17.30;59.70;;;;;;5116147;27;44460;-68
2022/03/11 04:13:56;;;;;;;5.30;5.00;;;17.30;59.70;;;;;;5117606;27;43936;-69
2022/03/11 04:16:24;;;;;;;5.50;5.20;;;17.30;59.90;;;;;;5117611;27;43940;-68
2022/03/11 04:18:52;;;;;;;5.30;5.10;;;17.40;59.70;;;;;;5122845;27;43964;-69
2022/03/11 04:21:22;;;;;;;5.10;4.90;;;17.60;59.40;;;;;;5117531;27;43976;-69
2022/03/11 04:23:50;;;;;;;5.77;5.37;;;17.80;59.00;;;;;;5117386;27;43895;-69
2022/03/11 04:26:18;;;;;;;5.47;5.10;;;18.00;58.60;;;;;;5104889;27;44495;-70
2022/03/11 04:28:46;;;;;;;5.90;5.60;;;18.00;58.30;;;;;;5105369;27;43974;-69
2022/03/11 04:31:14;;;;;;;4.63;4.43;;;17.90;58.30;;;;;;5124735;27;43813;-69
2022/03/11 04:33:42;;;;;;;5.30;5.10;;;17.80;58.40;;;;;;5123568;27;44125;-69
2022/03/11 04:36:11;;;;;;;4.73;4.50;;;17.70;58.60;;;;;;5124077;27;44001;-69
2022/03/11 04:38:40;;;;;;;5.07;4.77;;;17.60;58.80;;;;;;5124072;27;43318;-69
2022/03/11 04:41:08;;;;;;;5.00;4.80;;;17.50;58.90;;;;;;5124731;27;43393;-69
2022/03/11 04:43:38;;;;;;;5.13;4.93;;;17.50;59.10;;;;;;5123527;27;43946;-69
2022/03/11 04:46:06;;;;;;;5.20;4.93;;;17.40;59.20;;;;;;5123774;27;43887;-69
2022/03/11 04:48:36;;;;;;;4.63;4.43;;;17.40;59.30;;;;;;5123454;27;44403;-69
2022/03/11 04:51:04;;;;;;;5.30;5.00;;;17.40;59.40;;;;;;5122486;27;43954;-68
2022/03/11 04:53:32;;;;;;;5.03;4.83;;;17.40;59.70;;;;;;5122595;27;43970;-68
2022/03/11 04:56:01;;;;;;;5.10;4.90;;;17.40;59.60;;;;;;5105608;27;44473;-70
2022/03/11 04:58:29;;;;;;;5.20;4.90;;;17.60;59.30;;;;;;5123917;27;44079;-68
2022/03/11 05:00:59;;;;;;;5.00;4.80;;;17.60;59.00;;;;;;5124609;27;44006;-69
2022/03/11 05:03:34;;;;;;;4.20;4.10;;;17.60;58.80;;;;;;5122896;27;44017;-70
2022/03/11 05:06:02;;;;;;;4.60;4.40;;;17.60;58.90;;;;;;5123433;27;43962;-69
2022/03/11 05:08:30;;;;;;;5.43;5.17;;;17.50;58.90;;;;;;5123649;27;44017;-69
2022/03/11 05:10:58;;;;;;;4.60;4.40;;;17.50;59.10;;;;;;5124191;27;44233;-69
2022/03/11 05:13:29;;;;;;;4.53;4.43;;;17.40;59.20;;;;;;5120493;27;43973;-69
2022/03/11 05:15:57;;;;;;;4.90;4.70;;;17.40;59.30;;;;;;5091734;27;43446;-70
2022/03/11 05:18:26;;;;;;;4.47;4.27;;;17.40;59.40;;;;;;5110008;27;43988;-69
2022/03/11 05:20:54;;;;;;;4.70;4.50;;;17.30;59.40;;;;;;5110165;27;43892;-70
2022/03/11 05:23:22;;;;;;;4.50;4.30;;;17.30;59.50;;;;;;5108594;27;43943;-70
2022/03/11 05:25:49;;;;;;;4.77;4.57;;;17.30;59.60;;;;;;5109455;27;43914;-69
2022/03/11 05:28:18;;;;;;;4.77;4.57;;;17.30;59.70;;;;;;5090892;27;43987;-69
2022/03/11 05:30:47;;;;;;;5.00;4.80;;;17.30;59.80;;;;;;5110187;27;43954;-69
2022/03/11 05:33:15;;;;;;;5.13;4.83;;;17.30;59.70;;;;;;5109121;27;44055;-69
2022/03/11 05:35:43;;;;;;;4.87;4.67;;;17.50;59.50;;;;;;5108942;27;43399;-69
2022/03/11 05:38:11;;;;;;;4.70;4.50;;;17.70;59.20;;;;;;5109359;27;43813;-69
2022/03/11 05:40:39;;;;;;;4.30;4.20;;;17.90;58.70;;;;;;5090770;27;44038;-69
2022/03/11 05:43:07;;;;;;;4.87;4.67;;;17.90;58.30;;;;;;5090213;27;44239;-69
2022/03/11 05:45:35;;;;;;;4.07;3.93;;;17.90;58.20;;;;;;5108777;27;43374;-69
2022/03/11 05:48:05;;;;;;;4.57;4.37;;;17.80;58.20;;;;;;5095565;27;43987;-69
2022/03/11 05:50:33;;;;;;;4.37;4.17;;;17.70;58.40;;;;;;5109587;27;43887;-69
2022/03/11 05:53:03;;;;;;;4.13;3.93;;;17.60;58.60;;;;;;5109368;27;44826;-69
2022/03/11 05:55:31;;;;;;;4.37;4.17;;;17.60;58.80;;;;;;5109300;27;43911;-69
2022/03/11 05:57:59;;;;;;;4.10;4.00;;;17.50;58.90;;;;;;5109910;27;43928;-68
2022/03/11 06:00:27;;;;;;;4.60;4.40;;;17.50;59.10;;;;;;5110045;27;43352;-69
2022/03/11 06:02:55;;;;;;;4.43;4.33;;;17.40;59.20;;;;;;5109015;27;43987;-70
2022/03/11 06:05:24;;;;;;;4.33;4.23;;;17.40;59.30;;;;;;5090206;27;44790;-70
2022/03/11 06:07:52;;;;;;;4.83;4.63;;;17.30;59.40;;;;;;5109659;27;44088;-69
2022/03/11 06:10:20;;;;;;;4.03;3.87;;;17.40;59.60;;;;;;5109474;27;43950;-69
2022/03/11 06:12:48;;;;;;;4.60;4.40;;;17.40;59.40;;;;;;5109204;27;44012;-69
2022/03/11 06:15:16;;;;;;;4.50;4.30;;;17.60;59.10;;;;;;5090165;27;44633;-69
2022/03/11 06:17:44;;;;;;;4.20;4.10;;;17.60;58.80;;;;;;5109024;27;43926;-69
2022/03/11 06:20:13;;;;;;;4.57;4.30;;;17.60;58.70;;;;;;5109440;27;43985;-68
2022/03/11 06:22:50;;;;;;;5.00;4.70;;;17.50;58.70;;;;;;5108579;27;44424;-70
2022/03/11 06:25:18;;;;;;;4.50;4.30;;;17.50;58.90;;;;;;5107628;27;43978;-69
2022/03/11 06:27:46;;;;;;;4.23;4.13;;;17.50;59.10;;;;;;5108697;27;44075;-69
2022/03/11 06:30:14;;;;;;;4.23;4.07;;;17.40;59.10;;;;;;5109278;27;44064;-69
2022/03/11 06:32:44;;;;;;;4.43;4.13;;;17.30;59.20;;;;;;5089707;27;45779;-69
2022/03/11 06:35:13;;;;;;;4.20;4.00;;;17.30;59.30;;;;;;5108368;27;43912;-68
2022/03/11 06:37:41;;;;;;;4.10;4.00;;;17.30;59.40;;;;;;5108499;27;43935;-69
2022/03/11 06:40:10;;;;;;;4.40;4.20;;;17.30;59.40;;;;;;5108969;27;43729;-69
2022/03/11 06:42:39;;;;;;;4.67;4.40;;;17.30;59.50;;;;;;5128729;27;43937;-69
2022/03/11 06:45:08;;;;;;;4.20;4.10;;;17.20;59.50;;;;;;5109535;27;45260;-69
2022/03/11 06:47:36;;;;;;;4.13;4.03;;;17.30;59.70;;;;;;5101902;27;43939;-69
2022/03/11 06:50:04;;;;;;;4.80;4.60;;;17.40;59.50;;;;;;5080494;27;44000;-69
2022/03/11 06:52:32;;;;;;;4.00;3.90;;;17.60;59.20;;;;;;5100972;27;43996;-70
2022/03/11 06:55:00;;;;;;;4.63;4.43;;;17.80;58.80;;;;;;5079893;27;45241;-69
2022/03/11 06:57:29;;;;;;;4.47;4.27;;;17.90;58.30;;;;;;5108380;27;43948;-69
2022/03/11 06:59:57;;;;;;;4.57;4.27;;;17.90;58.10;;;;;;5109179;27;43942;-70
2022/03/11 07:02:25;;;;;;;4.43;4.23;;;17.90;58.00;;;;;;5107929;27;43971;-69
2022/03/11 07:04:54;;;;;;;4.67;4.37;;;17.80;58.10;;;;;;5108117;27;44018;-69
2022/03/11 07:07:22;;;;;;;4.47;4.30;;;17.70;58.50;;;;;;5089228;27;43980;-70
2022/03/11 07:09:50;;;;;;;4.40;4.20;;;17.60;58.60;;;;;;5108596;27;43944;-70
2022/03/11 07:12:18;;;;;;;4.07;3.97;;;17.50;58.70;;;;;;5108072;27;43776;-69
2022/03/11 07:14:48;;;;;;;4.03;3.90;;;17.40;58.80;;;;;;5108198;27;43981;-70
2022/03/11 07:17:16;;;;;;;4.00;3.90;;;17.40;59.00;;;;;;5108088;27;43920;-68
2022/03/11 07:19:44;;;;;;;4.70;4.50;;;17.40;59.10;;;;;;5108362;27;43348;-68
2022/03/11 07:22:12;;;;;;;4.70;4.50;;;17.30;59.10;;;;;;5108043;27;44801;-69
2022/03/11 07:24:41;;;;;;;4.73;4.53;;;17.30;59.50;;;;;;5107763;27;44449;-69
2022/03/11 07:27:10;;;;;;;4.47;4.27;;;17.40;59.50;;;;;;5107773;27;43933;-69
2022/03/11 07:29:38;;;;;;;4.33;4.23;;;17.50;59.00;;;;;;5089327;27;44022;-69
2022/03/11 07:32:09;;;;;;;4.90;4.57;;;17.60;58.80;;;;;;5107840;27;44009;-69
2022/03/11 07:34:37;;;;;;;4.13;4.03;;;17.60;58.70;;;;;;5107496;27;44190;-69
2022/03/11 07:37:06;;;;;;;5.03;4.83;;;17.60;58.70;;;;;;5107207;27;44042;-68
2022/03/11 07:39:34;;;;;;;4.37;4.23;;;17.50;59.40;;;;;;5104043;27;43919;-69
2022/03/11 07:42:02;;;;;;;4.40;4.20;;;17.40;58.90;;;;;;5127600;27;43930;-68
2022/03/11 07:44:30;;;;;;;4.20;4.00;;;17.40;59.10;;;;;;5127132;27;44102;-68
2022/03/11 07:46:58;;;;;;;4.90;4.70;;;17.30;59.10;;;;;;5127895;27;43944;-69
2022/03/11 07:49:28;;;;;;;4.30;4.10;;;17.30;59.20;;;;;;5128045;27;43939;-69
2022/03/11 07:51:56;;;;;;;4.47;4.30;;;17.30;59.30;;;;;;5127315;27;44006;-70
2022/03/11 07:54:24;;;;;;;4.40;4.20;;;17.30;59.50;;;;;;5126668;27;44013;-69
2022/03/11 07:56:52;;;;;;;4.40;4.20;;;17.20;59.40;;;;;;5127405;27;44031;-69
2022/03/11 07:59:20;;;;;;;4.67;4.47;;;17.20;59.50;;;;;;5127506;27;43465;-69
2022/03/11 08:01:49;;;;;;;4.70;4.50;;;17.20;59.70;;;;;;5126706;27;43945;-69
2022/03/11 08:04:17;;;;;;;4.50;4.30;;;17.30;59.70;;;;;;5108182;27;45425;-69
2022/03/11 08:06:47;;;;;;;5.07;4.77;;;17.50;59.40;;;;;;5127290;27;43950;-69
2022/03/11 08:09:15;;;;;;;4.33;4.13;;;17.70;59.00;;;;;;5108637;27;44271;-69
2022/03/11 08:11:43;;;;;;;4.50;4.30;;;17.80;58.50;;;;;;5108156;27;46125;-69
2022/03/11 08:14:11;;;;;;;4.10;4.00;;;17.80;58.20;;;;;;5111771;27;43945;-69
2022/03/11 08:16:39;;;;;;;4.47;4.20;;;17.80;58.30;;;;;;5107038;27;43944;-69
2022/03/11 08:19:09;;;;;;;4.83;4.60;;;17.70;58.20;;;;;;5107427;27;44185;-69
2022/03/11 08:21:51;;;;;;;4.63;4.43;;;17.60;58.40;;;;;;5106962;27;44075;-70
2022/03/11 08:24:19;;;;;;;4.80;4.50;;;17.50;58.40;;;;;;5106377;27;43966;-69
2022/03/11 08:26:48;;;;;;;4.63;4.33;;;17.40;58.60;;;;;;5107038;27;44002;-69
2022/03/11 08:29:16;;;;;;;4.80;4.50;;;17.40;58.80;;;;;;5107198;27;43939;-69
2022/03/11 08:31:46;;;;;;;4.80;4.50;;;17.40;58.90;;;;;;5106998;27;43928;-69
2022/03/11 08:34:15;;;;;;;5.17;4.63;;;17.30;59.00;;;;;;5106703;27;43935;-70
2022/03/11 08:36:43;;;;;;;4.80;4.50;;;17.30;59.00;;;;;;5088788;27;44132;-69
2022/03/11 08:39:12;;;;;;;4.87;4.40;;;17.30;59.40;;;;;;5107352;27;44000;-70
2022/03/11 08:41:40;;;;;;;6.67;4.53;;;17.40;59.40;;;;;;5106837;27;44313;-68
2022/03/11 08:44:08;;;;;;;4.83;4.37;;;17.50;59.10;;;;;;5087965;27;45091;-69
2022/03/11 08:46:37;;;;;;;4.70;4.40;;;17.60;58.80;;;;;;5106929;27;43493;-69
2022/03/11 08:49:07;;;;;;;4.30;4.10;;;17.60;58.40;;;;;;5120172;27;43382;-69
2022/03/11 08:51:35;;;;;;;4.80;4.50;;;17.50;58.40;;;;;;5130019;27;44356;-70
2022/03/11 08:54:03;;;;;;;5.90;4.37;;;17.50;58.60;;;;;;5129714;27;43982;-69
2022/03/11 08:56:32;;;;;;;5.17;4.80;;;17.40;58.60;;;;;;5130066;27;43880;-68
2022/03/11 08:59:00;;;;;;;4.40;4.20;;;17.40;58.80;;;;;;5130750;27;43944;-69
2022/03/11 09:01:28;;;;;;;4.57;4.37;;;17.30;58.90;;;;;;5129549;27;43892;-69
2022/03/11 09:03:57;;;;;;;4.73;4.37;;;17.30;59.00;;;;;;5110971;27;45735;-69
2022/03/11 09:06:25;;;;;;;4.70;4.50;;;17.30;59.00;;;;;;5110731;27;43954;-68
2022/03/11 09:08:53;;;;;;;4.70;4.40;;;17.30;59.10;;;;;;5111451;27;44198;-69
2022/03/11 09:11:21;;;;;;;4.43;4.13;;;17.30;59.20;;;;;;5129604;27;43622;-69
2022/03/11 09:13:51;;;;;;;4.80;4.50;;;17.20;59.20;;;;;;5130009;27;43922;-69
2022/03/11 09:16:19;;;;;;;4.43;4.23;;;17.20;59.30;;;;;;5102739;27;43960;-69
2022/03/11 09:18:47;;;;;;;5.17;4.87;;;17.30;59.50;;;;;;5110540;27;43832;-69
2022/03/11 09:21:15;;;;;;;4.80;4.50;;;17.40;59.30;;;;;;5123209;27;44007;-69
2022/03/11 09:23:43;;;;;;;4.77;4.57;;;17.60;59.00;;;;;;5103193;27;43348;-68
2022/03/11 09:26:11;;;;;;;4.60;4.40;;;17.80;58.50;;;;;;5102983;27;43745;-69
2022/03/11 09:28:39;;;;;;;4.33;4.07;;;17.90;58.10;;;;;;5103156;27;43843;-69
2022/03/11 09:31:09;;;;;;;4.83;4.53;;;17.90;57.90;;;;;;5080507;27;45730;-69
2022/03/11 09:33:37;;;;;;;4.57;4.37;;;17.90;57.80;;;;;;5093826;27;43964;-69
2022/03/11 09:36:05;;;;;;;4.53;4.23;;;17.80;57.90;;;;;;5103635;27;43876;-69
2022/03/11 09:38:33;;;;;;;4.47;4.27;;;17.70;58.10;;;;;;5102957;27;43475;-68
2022/03/11 09:41:04;;;;;;;4.57;4.37;;;17.60;58.30;;;;;;5090814;27;46235;-69
2022/03/11 09:43:32;;;;;;;4.17;4.03;;;17.50;58.50;;;;;;5109513;27;43915;-69
2022/03/11 09:46:00;;;;;;;4.23;4.13;;;17.50;58.70;;;;;;5109588;27;43895;-69
2022/03/11 09:48:30;;;;;;;4.63;4.43;;;17.40;58.80;;;;;;5110170;27;43334;-69
2022/03/11 09:50:58;;;;;;;4.30;4.10;;;17.40;58.90;;;;;;5109683;27;43959;-70
2022/03/11 09:53:27;;;;;;;4.33;4.13;;;17.40;59.10;;;;;;5090039;27;44979;-69
2022/03/11 09:55:55;;;;;;;4.63;4.20;;;17.40;59.30;;;;;;5090937;27;44039;-69
2022/03/11 09:58:23;;;;;;;4.60;4.40;;;17.40;59.20;;;;;;5109536;27;43964;-68
2022/03/11 10:00:51;;;;;;;4.20;4.10;;;17.60;59.00;;;;;;5109031;27;43880;-68
2022/03/11 10:03:20;;;;;;;4.27;4.07;;;17.80;59.40;;;;;;5086442;27;44916;-69
2022/03/11 10:05:50;;;;;;;4.67;4.47;;;17.90;58.40;;;;;;5088634;27;44006;-68
2022/03/11 10:08:31;;;;;;;4.37;4.17;;;18.10;58.00;;;;;;5088881;27;43873;-69
2022/03/11 10:11:17;;;;;;;4.93;4.63;;;18.30;57.60;;;;;;5089070;27;43977;-70
2022/03/11 10:13:46;;;;;;;4.80;4.47;;;18.40;57.10;;;;;;5088649;27;43895;-69
2022/03/11 10:16:18;;;;;;;4.50;4.20;;;18.50;56.80;;;;;;5088562;27;43436;-69
2022/03/11 10:18:56;;;;;;;4.03;3.93;;;18.60;56.60;;;;;;5088803;27;43906;-69
2022/03/11 10:21:32;;;;;;;4.47;4.27;;;18.70;56.40;;;;;;5086737;27;46207;-69
2022/03/11 10:24:01;;;;;;;4.53;4.23;;;18.60;56.50;;;;;;5086961;27;44647;-70
2022/03/11 10:26:36;;;;;;;4.40;4.20;;;18.50;56.70;;;;;;5088225;27;44051;-70
2022/03/11 10:29:10;;;;;;;4.27;4.07;;;18.30;57.00;;;;;;5088934;27;43761;-69
2022/03/11 10:31:40;;;;;;;3.90;3.80;;;18.10;57.20;;;;;;5088032;27;43974;-68
2022/03/11 10:34:15;;;;;;;3.93;3.83;;;18.00;57.50;;;;;;5086480;27;45026;-69
2022/03/11 10:36:51;;;;;;;4.40;4.20;;;17.90;57.80;;;;;;5088470;27;43363;-70
2022/03/11 10:39:20;;;;;;;4.07;3.90;;;17.80;58.10;;;;;;5081506;27;43967;-69
2022/03/11 10:41:50;;;;;;;4.43;4.23;;;17.70;58.30;;;;;;5093794;27;46800;-69
2022/03/11 10:44:26;;;;;;;4.10;3.97;;;17.60;58.80;;;;;;5088138;27;43911;-69
2022/03/11 10:46:54;;;;;;;4.10;3.90;;;17.70;59.00;;;;;;5107919;27;43929;-69
2022/03/11 10:49:31;;;;;;;4.10;4.00;;;17.80;58.70;;;;;;5108064;27;44086;-69
2022/03/11 10:52:01;;;;;;;4.40;4.20;;;17.80;58.40;;;;;;5106128;27;45716;-69
2022/03/11 10:54:29;;;;;;;4.03;3.93;;;17.80;58.40;;;;;;5105876;27;44727;-69
2022/03/11 10:57:07;;;;;;;4.30;4.13;;;17.70;58.40;;;;;;5106456;27;43876;-69
2022/03/11 10:59:35;;;;;;;4.13;4.03;;;17.60;58.50;;;;;;5108128;27;43721;-70
2022/03/11 11:02:04;;;;;;;4.00;3.83;;;17.60;58.70;;;;;;5111499;27;44009;-69
2022/03/11 11:04:32;;;;;;;4.10;4.00;;;17.50;58.80;;;;;;5127915;27;44111;-69
2022/03/11 11:07:04;;;;;;;4.07;3.97;;;17.50;59.00;;;;;;5128436;27;43356;-68
2022/03/11 11:09:32;;;;;;;4.50;4.40;;;17.40;59.00;;;;;;5110028;27;43933;-69
2022/03/11 11:12:00;;;;;;;4.23;4.10;;;17.40;59.20;;;;;;5107495;27;44306;-68
2022/03/11 11:14:28;;;;;;;4.00;3.90;;;17.40;59.30;;;;;;5107627;27;44275;-69
2022/03/11 11:16:56;;;;;;;4.50;4.30;;;17.40;59.40;;;;;;5108217;27;43427;-69
2022/03/11 11:19:24;;;;;;;4.23;4.03;;;17.40;59.50;;;;;;5128315;27;44017;-69
2022/03/11 11:21:53;;;;;;;4.20;4.00;;;17.40;59.70;;;;;;5128030;27;43763;-68
2022/03/11 11:24:23;;;;;;;3.97;3.77;;;17.40;59.50;;;;;;5127146;27;44045;-69
2022/03/11 11:26:53;;;;;;;4.03;3.93;;;17.60;59.20;;;;;;5127937;27;43844;-69
2022/03/11 11:29:21;;;;;;;4.07;3.97;;;17.70;58.90;;;;;;5128257;27;44476;-69
2022/03/11 11:31:49;;;;;;;4.30;4.10;;;17.80;58.70;;;;;;5127777;27;44030;-69
2022/03/11 11:34:28;;;;;;;3.57;3.47;;;17.90;58.40;;;;;;5108749;27;44484;-69
2022/03/11 11:36:55;;;;;;;3.73;3.63;;;17.90;58.30;;;;;;5128061;27;44317;-69
2022/03/11 11:39:27;;;;;;;3.93;3.83;;;17.80;58.40;;;;;;5127535;27;43970;-68
2022/03/11 11:41:56;;;;;;;3.80;3.70;;;17.70;58.60;;;;;;5108827;27;45862;-69
2022/03/11 11:44:34;;;;;;;3.80;3.70;;;17.70;58.80;;;;;;5127345;27;43403;-69
2022/03/11 11:47:12;;;;;;;3.80;3.70;;;17.60;59.00;;;;;;5127463;27;43985;-69
2022/03/11 11:49:41;;;;;;;4.30;4.20;;;17.50;59.10;;;;;;5108989;27;43772;-68
2022/03/11 11:52:11;;;;;;;4.00;3.80;;;17.50;59.20;;;;;;5127406;27;44067;-69
2022/03/11 11:54:43;;;;;;;3.90;3.80;;;17.50;59.30;;;;;;5126626;27;43927;-68
2022/03/11 11:57:26;;;;;;;4.13;4.03;;;17.40;59.40;;;;;;5127555;27;43991;-69
2022/03/11 11:59:55;;;;;;;3.90;3.80;;;17.50;59.50;;;;;;5101553;27;43935;-69
2022/03/11 12:02:31;;;;;;;4.10;4.00;;;17.60;59.30;;;;;;5106511;27;44121;-69
2022/03/11 12:05:00;;;;;;;3.60;3.50;;;17.70;59.00;;;;;;5107451;27;43376;-70
2022/03/11 12:07:47;;;;;;;3.90;3.80;;;17.70;58.80;;;;;;5088913;27;43434;-69
2022/03/11 12:10:26;;;;;;;3.70;3.60;;;17.70;58.90;;;;;;5089092;27;44251;-69
2022/03/11 12:13:04;;;;;;;4.10;4.00;;;17.60;58.90;;;;;;5107035;27;43989;-68
2022/03/11 12:15:34;;;;;;;4.03;3.83;;;17.60;59.10;;;;;;5106707;27;43487;-68
2022/03/11 12:18:06;;;;;;;3.57;3.47;;;17.50;59.20;;;;;;5107566;27;43887;-70
2022/03/11 12:20:36;;;;;;;3.80;3.70;;;17.50;59.40;;;;;;5107156;27;43994;-68
2022/03/11 12:23:05;;;;;;;3.40;3.30;;;17.50;59.50;;;;;;5107573;27;43963;-69
2022/03/11 12:25:36;;;;;;;3.57;3.47;;;17.40;59.40;;;;;;5125123;27;44015;-68
2022/03/11 12:28:08;;;;;;;4.07;3.87;;;17.40;59.60;;;;;;5128953;27;43812;-68
2022/03/11 12:30:38;;;;;;;3.83;3.73;;;17.40;59.60;;;;;;5111082;27;43904;-69
2022/03/11 12:33:07;;;;;;;3.67;3.57;;;17.40;59.70;;;;;;5110667;27;43948;-69
2022/03/11 12:35:35;;;;;;;3.60;3.50;;;17.40;59.70;;;;;;5091667;27;44773;-69
2022/03/11 12:38:04;;;;;;;8.20;4.03;;;17.50;59.50;;;;;;5110439;27;43800;-69
2022/03/11 12:40:32;;;;;;;5.03;4.00;;;17.60;58.80;;;;;;5091901;27;44216;-69
2022/03/11 12:43:03;;;;;;;4.93;3.60;;;17.70;58.40;;;;;;5110726;27;44047;-69
2022/03/11 12:45:36;;;;;;;5.50;3.80;;;17.90;58.30;;;;;;5110491;27;43950;-68
2022/03/11 12:48:05;;;;;;;6.23;3.67;;;18.00;58.20;;;;;;5110372;27;43883;-68
2022/03/11 12:50:33;;;;;;;4.33;3.93;;;18.00;58.00;;;;;;5110286;27;44050;-69
2022/03/11 12:53:03;;;;;;;4.10;3.80;;;18.00;58.10;;;;;;5109923;27;43928;-70
2022/03/11 12:55:33;;;;;;;3.43;3.33;;;17.90;58.20;;;;;;5091308;27;44603;-69